Time;durP1;ratioP1;P1;durP2;ratioP2;P2;SDS_P1;SDS_P2;PMS_P1;PMS_P2;Temp;Humidity;BMP_temperature;BMP_pressure;BME280_temperature;BME280_humidity;BME280_pressure;Samples;Min_cycle;Max_cycle;Signal;HPM_P1;HPM_P2
2023/09/17 00:01:10;;;;;;;4.82;4.18;;;19.60;60.40;;;;;;5032429;28;20037;-67
2023/09/17 00:03:35;;;;;;;5.03;4.13;;;19.70;60.50;;;;;;5014185;28;20044;-67
2023/09/17 00:06:02;;;;;;;5.57;4.25;;;19.60;60.40;;;;;;5012882;28;20101;-67
2023/09/17 00:08:27;;;;;;;6.65;4.10;;;19.60;60.40;;;;;;5013818;28;20033;-67
2023/09/17 00:10:53;;;;;;;4.43;3.53;;;19.60;60.40;;;;;;5011619;28;20037;-67
2023/09/17 00:13:19;;;;;;;4.47;3.90;;;19.60;60.40;;;;;;5012251;28;20108;-67
2023/09/17 00:15:45;;;;;;;4.32;3.55;;;19.60;60.60;;;;;;5012586;28;20026;-66
2023/09/17 00:18:12;;;;;;;4.78;3.97;;;19.60;60.70;;;;;;5023763;28;20026;-66
2023/09/17 00:20:38;;;;;;;5.22;4.00;;;19.50;60.70;;;;;;5032318;28;20100;-66
2023/09/17 00:23:04;;;;;;;5.25;3.72;;;19.50;60.80;;;;;;5032231;28;20152;-66
2023/09/17 00:25:29;;;;;;;4.00;3.58;;;19.50;60.80;;;;;;5032058;28;20057;-66
2023/09/17 00:27:55;;;;;;;5.38;4.30;;;19.50;60.80;;;;;;5034933;28;20033;-66
2023/09/17 00:30:21;;;;;;;4.22;3.80;;;19.50;60.80;;;;;;5035490;28;20100;-67
2023/09/17 00:32:47;;;;;;;5.25;3.80;;;19.50;60.90;;;;;;5024027;28;20040;-67
2023/09/17 00:35:13;;;;;;;4.60;3.70;;;19.40;60.90;;;;;;5016080;28;20473;-68
2023/09/17 00:37:40;;;;;;;4.78;3.83;;;19.40;60.90;;;;;;5027998;28;20496;-68
2023/09/17 00:40:07;;;;;;;5.55;4.03;;;19.40;61.00;;;;;;5035533;28;20108;-67
2023/09/17 00:42:33;;;;;;;4.63;3.85;;;19.40;61.10;;;;;;5035336;28;20033;-67
2023/09/17 00:44:58;;;;;;;4.90;3.90;;;19.40;61.20;;;;;;5035300;28;20025;-68
2023/09/17 00:47:24;;;;;;;5.03;3.90;;;19.40;61.30;;;;;;5022443;28;20149;-67
2023/09/17 00:49:50;;;;;;;5.35;3.83;;;19.40;61.30;;;;;;5015786;28;20033;-68
2023/09/17 00:52:19;;;;;;;4.40;3.60;;;19.40;61.40;;;;;;5013723;28;20041;-68
2023/09/17 00:54:47;;;;;;;4.30;3.90;;;19.40;61.50;;;;;;4976298;28;1149040;-67
2023/09/17 00:57:16;;;;;;;4.25;3.58;;;19.40;61.60;;;;;;5024828;28;20036;-67
2023/09/17 00:59:47;;;;;;;4.75;4.05;;;19.30;61.50;;;;;;5036428;28;20087;-67
2023/09/17 01:02:13;;;;;;;4.85;3.60;;;19.30;61.60;;;;;;5035780;28;20418;-68
2023/09/17 01:04:46;;;;;;;4.35;3.78;;;19.30;61.60;;;;;;5034791;28;20491;-65
2023/09/17 01:07:12;;;;;;;4.72;3.67;;;19.30;61.70;;;;;;5034677;28;20076;-66
2023/09/17 01:09:38;;;;;;;4.80;3.70;;;19.30;61.70;;;;;;5036046;28;20104;-66
2023/09/17 01:12:06;;;;;;;4.22;3.72;;;19.30;61.70;;;;;;5036082;28;20030;-66
2023/09/17 01:14:34;;;;;;;4.90;4.00;;;19.30;61.90;;;;;;5034892;28;20033;-66
2023/09/17 01:17:01;;;;;;;4.50;3.95;;;19.20;61.80;;;;;;5029738;28;20084;-67
2023/09/17 01:19:29;;;;;;;4.57;3.97;;;19.20;61.90;;;;;;5015909;28;20107;-66
2023/09/17 01:22:09;;;;;;;6.80;3.85;;;19.20;62.00;;;;;;5016086;28;20052;-66
2023/09/17 01:24:53;;;;;;;3.50;3.20;;;19.20;62.10;;;;;;5016313;28;20033;-67
2023/09/17 01:27:20;;;;;;;5.93;3.97;;;19.20;62.10;;;;;;5016288;28;20030;-67
2023/09/17 01:29:49;;;;;;;5.00;3.83;;;19.20;62.10;;;;;;5014874;28;20026;-67
2023/09/17 01:32:16;;;;;;;5.20;4.10;;;19.20;62.10;;;;;;5015493;28;20057;-67
2023/09/17 01:34:44;;;;;;;4.57;3.65;;;19.20;62.20;;;;;;5029430;28;20037;-66
2023/09/17 01:37:31;;;;;;;5.22;4.03;;;19.20;62.20;;;;;;5029846;28;20037;-67
2023/09/17 01:40:03;;;;;;;3.90;3.50;;;19.10;62.50;;;;;;5015426;28;20030;-66
2023/09/17 01:42:29;;;;;;;4.30;3.80;;;19.20;62.40;;;;;;5015576;28;20030;-67
2023/09/17 01:44:57;;;;;;;3.97;3.55;;;19.10;62.40;;;;;;5015402;28;20029;-66
2023/09/17 01:47:25;;;;;;;4.28;3.88;;;19.10;62.50;;;;;;5029919;28;20118;-66
2023/09/17 01:49:51;;;;;;;5.03;3.92;;;19.10;62.50;;;;;;5033309;28;20034;-66
2023/09/17 01:52:22;;;;;;;4.78;4.10;;;19.10;62.50;;;;;;5035096;28;20021;-67
2023/09/17 01:54:49;;;;;;;4.60;3.97;;;19.10;62.50;;;;;;5032047;28;20076;-66
2023/09/17 01:57:15;;;;;;;4.90;3.88;;;19.10;62.50;;;;;;5015547;28;20029;-67
2023/09/17 01:59:40;;;;;;;4.60;3.85;;;19.00;62.40;;;;;;5015292;28;20033;-67
2023/09/17 02:02:06;;;;;;;5.65;4.18;;;19.00;62.40;;;;;;5015069;28;20033;-66
2023/09/17 02:04:32;;;;;;;4.60;3.90;;;19.00;62.40;;;;;;5015046;28;20396;-66
2023/09/17 02:06:57;;;;;;;5.30;4.18;;;19.00;62.30;;;;;;5027464;28;20030;-67
2023/09/17 02:09:23;;;;;;;4.82;4.18;;;19.00;62.30;;;;;;5035098;28;20391;-67
2023/09/17 02:11:49;;;;;;;6.05;4.03;;;18.90;62.20;;;;;;5034957;28;20029;-67
2023/09/17 02:14:16;;;;;;;5.88;4.10;;;18.90;62.30;;;;;;5032814;28;20038;-67
2023/09/17 02:16:42;;;;;;;4.90;4.38;;;18.90;62.40;;;;;;5024023;28;20038;-67
2023/09/17 02:19:09;;;;;;;6.28;4.07;;;18.90;62.40;;;;;;5014989;28;20415;-67
2023/09/17 02:21:35;;;;;;;5.15;4.18;;;18.90;62.50;;;;;;5015096;28;20479;-68
2023/09/17 02:24:01;;;;;;;4.68;4.07;;;18.90;62.50;;;;;;5014882;28;20038;-68
2023/09/17 02:26:27;;;;;;;4.47;3.83;;;18.90;62.50;;;;;;5014680;28;20061;-67
2023/09/17 02:28:52;;;;;;;5.22;4.40;;;18.80;62.40;;;;;;5014731;28;20061;-67
2023/09/17 02:31:18;;;;;;;5.50;4.20;;;18.80;62.50;;;;;;5014771;28;20061;-67
2023/09/17 02:33:44;;;;;;;5.03;4.50;;;18.80;62.60;;;;;;5013251;28;20502;-67
2023/09/17 02:36:09;;;;;;;4.38;3.97;;;18.80;62.80;;;;;;5014609;28;20041;-67
2023/09/17 02:38:35;;;;;;;4.70;3.95;;;18.80;62.90;;;;;;5014460;28;20026;-68
2023/09/17 02:41:03;;;;;;;5.82;4.38;;;18.80;63.60;;;;;;5014602;28;20026;-67
2023/09/17 02:43:29;;;;;;;5.25;4.10;;;18.80;63.10;;;;;;5014842;28;20487;-67
2023/09/17 02:45:55;;;;;;;5.30;4.25;;;18.80;63.10;;;;;;5014779;28;20030;-67
2023/09/17 02:48:21;;;;;;;4.82;4.20;;;18.80;63.20;;;;;;5013070;28;20421;-67
2023/09/17 02:50:47;;;;;;;5.38;4.57;;;18.70;63.30;;;;;;5014488;28;20119;-68
2023/09/17 02:53:12;;;;;;;5.20;4.50;;;18.80;63.40;;;;;;5014099;28;20042;-67
2023/09/17 02:55:39;;;;;;;5.93;4.53;;;18.80;63.50;;;;;;5014444;28;20053;-68
2023/09/17 02:58:05;;;;;;;5.32;4.22;;;18.80;63.60;;;;;;5012820;28;20025;-67
2023/09/17 03:00:34;;;;;;;4.45;3.95;;;18.80;63.60;;;;;;5023854;28;20029;-67
2023/09/17 03:03:00;;;;;;;5.15;4.35;;;18.80;63.60;;;;;;5013344;28;20029;-67
2023/09/17 03:05:26;;;;;;;5.53;4.40;;;18.80;63.70;;;;;;5012883;28;20034;-67
2023/09/17 03:07:53;;;;;;;7.30;4.50;;;18.70;63.70;;;;;;5014098;28;20029;-67
2023/09/17 03:10:20;;;;;;;4.95;4.15;;;18.70;63.70;;;;;;5012563;28;20030;-67
2023/09/17 03:12:46;;;;;;;6.10;4.50;;;18.70;63.70;;;;;;5014301;28;20457;-67
2023/09/17 03:15:12;;;;;;;6.15;4.75;;;18.70;63.80;;;;;;5014155;28;20037;-67
2023/09/17 03:17:38;;;;;;;6.53;4.80;;;18.70;63.80;;;;;;5020912;28;20112;-67
2023/09/17 03:20:13;;;;;;;6.75;5.20;;;18.60;63.60;;;;;;5033890;28;20022;-67
2023/09/17 03:22:40;;;;;;;5.95;4.60;;;18.60;63.60;;;;;;5033623;28;20468;-67
2023/09/17 03:25:06;;;;;;;5.70;4.65;;;18.60;63.70;;;;;;5033462;28;20026;-68
2023/09/17 03:27:35;;;;;;;6.30;4.80;;;18.60;63.70;;;;;;5033779;28;20071;-68
2023/09/17 03:30:03;;;;;;;5.03;4.53;;;18.60;63.80;;;;;;5033740;28;20083;-67
2023/09/17 03:32:29;;;;;;;5.25;4.30;;;18.50;63.80;;;;;;5025094;28;20037;-67
2023/09/17 03:34:56;;;;;;;6.35;4.50;;;18.50;63.90;;;;;;5013957;28;20384;-67
2023/09/17 03:37:22;;;;;;;6.43;4.75;;;18.50;64.00;;;;;;5018756;28;20029;-67
2023/09/17 03:40:14;;;;;;;6.30;4.63;;;18.50;64.10;;;;;;5033350;28;20041;-67
2023/09/17 03:42:40;;;;;;;7.20;5.03;;;18.50;64.40;;;;;;5032689;28;20030;-67
2023/09/17 03:45:09;;;;;;;5.90;4.68;;;18.50;64.30;;;;;;5017590;28;20033;-67
2023/09/17 03:47:43;;;;;;;6.90;4.75;;;18.50;64.40;;;;;;5023410;28;20060;-67
2023/09/17 03:50:09;;;;;;;4.88;4.38;;;18.50;65.10;;;;;;5031731;28;20057;-67
2023/09/17 03:52:37;;;;;;;7.57;4.45;;;18.50;64.60;;;;;;5031394;28;20451;-67
2023/09/17 03:55:08;;;;;;;4.65;4.15;;;18.50;64.70;;;;;;5018029;28;20057;-67
2023/09/17 03:57:37;;;;;;;5.25;4.45;;;18.50;64.80;;;;;;5023417;28;20037;-65
2023/09/17 04:00:07;;;;;;;4.85;3.85;;;18.50;64.90;;;;;;5032664;28;20026;-68
2023/09/17 04:02:36;;;;;;;4.88;4.22;;;18.50;65.00;;;;;;5015986;28;20111;-66
2023/09/17 04:05:10;;;;;;;6.15;4.10;;;18.50;65.00;;;;;;5017251;28;20376;-65
2023/09/17 04:07:44;;;;;;;5.00;4.22;;;18.50;65.10;;;;;;5017561;28;20068;-68
2023/09/17 04:10:10;;;;;;;4.68;3.95;;;18.60;65.20;;;;;;5017517;28;20384;-66
2023/09/17 04:12:37;;;;;;;6.13;3.90;;;18.60;65.20;;;;;;5015908;28;20026;-66
2023/09/17 04:15:08;;;;;;;5.25;4.03;;;18.60;65.30;;;;;;5017194;28;20026;-66
2023/09/17 04:17:34;;;;;;;4.93;4.28;;;18.60;65.30;;;;;;5029841;28;20111;-66
2023/09/17 04:20:00;;;;;;;5.03;4.15;;;18.60;65.40;;;;;;5036680;28;20426;-65
2023/09/17 04:22:25;;;;;;;5.88;4.22;;;18.60;65.40;;;;;;5036723;28;20132;-66
2023/09/17 04:24:51;;;;;;;4.97;4.25;;;18.60;65.40;;;;;;5025809;28;20392;-66
2023/09/17 04:27:17;;;;;;;5.20;4.32;;;18.60;65.40;;;;;;5016813;28;20459;-66
2023/09/17 04:29:43;;;;;;;4.43;4.03;;;18.60;65.50;;;;;;5016770;28;20033;-68
2023/09/17 04:32:09;;;;;;;4.78;4.25;;;18.60;65.60;;;;;;5017048;28;20033;-66
2023/09/17 04:34:34;;;;;;;5.45;4.13;;;18.60;65.60;;;;;;5032131;28;20095;-68
2023/09/17 04:37:00;;;;;;;5.53;4.13;;;18.60;65.70;;;;;;5016876;28;20030;-66
2023/09/17 04:39:27;;;;;;;5.55;3.80;;;18.60;65.70;;;;;;5031295;28;20036;-66
2023/09/17 04:41:53;;;;;;;4.93;4.43;;;18.60;65.70;;;;;;5035046;28;20498;-68
2023/09/17 04:44:19;;;;;;;5.63;4.20;;;18.70;65.90;;;;;;5036082;28;20038;-67
2023/09/17 04:46:44;;;;;;;6.80;4.43;;;18.70;65.90;;;;;;5036686;28;20034;-67
2023/09/17 04:49:10;;;;;;;5.40;4.32;;;18.80;66.00;;;;;;5036494;28;20025;-66
2023/09/17 04:51:36;;;;;;;5.40;4.40;;;18.80;66.00;;;;;;5026692;28;20034;-66
2023/09/17 04:54:04;;;;;;;6.35;4.45;;;18.80;66.00;;;;;;5014950;28;20529;-65
2023/09/17 04:56:30;;;;;;;6.57;4.63;;;18.80;66.10;;;;;;5016577;28;20030;-65
2023/09/17 04:59:00;;;;;;;5.65;4.22;;;18.80;66.10;;;;;;5016492;28;20041;-66
2023/09/17 05:01:26;;;;;;;5.15;4.30;;;18.80;66.10;;;;;;5022905;28;20460;-65
2023/09/17 05:03:52;;;;;;;5.65;4.70;;;18.90;66.20;;;;;;5032098;28;20031;-66
2023/09/17 05:06:18;;;;;;;5.63;4.60;;;18.90;66.20;;;;;;5032182;28;20026;-65
2023/09/17 05:08:44;;;;;;;5.35;4.40;;;18.90;66.30;;;;;;5035498;28;20036;-66
2023/09/17 05:11:10;;;;;;;6.63;4.50;;;19.00;66.40;;;;;;5035813;28;20065;-65
2023/09/17 05:13:35;;;;;;;5.07;4.38;;;19.00;66.40;;;;;;5034431;28;20072;-66
2023/09/17 05:16:03;;;;;;;5.25;4.50;;;19.00;66.40;;;;;;5034672;28;20045;-66
2023/09/17 05:18:28;;;;;;;4.88;4.28;;;19.10;66.50;;;;;;5027804;28;20109;-68
2023/09/17 05:20:54;;;;;;;6.15;4.55;;;19.10;66.50;;;;;;5014780;28;20100;-69
2023/09/17 05:23:21;;;;;;;5.15;4.65;;;19.10;66.80;;;;;;5015858;28;20040;-65
2023/09/17 05:25:46;;;;;;;5.20;4.50;;;19.20;66.60;;;;;;5015852;28;20061;-67
2023/09/17 05:28:12;;;;;;;5.32;4.65;;;19.20;66.70;;;;;;5022008;28;20056;-66
2023/09/17 05:30:38;;;;;;;5.88;4.68;;;19.20;66.70;;;;;;5043806;28;20033;-66
2023/09/17 05:33:04;;;;;;;5.00;4.25;;;19.20;66.80;;;;;;5045918;28;20083;-67
2023/09/17 05:35:30;;;;;;;6.13;4.40;;;19.20;66.90;;;;;;5034702;28;20041;-66
2023/09/17 05:37:57;;;;;;;5.93;5.25;;;19.30;66.90;;;;;;5035818;28;20036;-73
2023/09/17 05:40:22;;;;;;;5.97;5.30;;;19.30;67.00;;;;;;5034260;28;20025;-70
2023/09/17 05:42:49;;;;;;;6.90;5.45;;;19.30;67.00;;;;;;5034923;28;20375;-71
2023/09/17 05:45:15;;;;;;;7.63;5.05;;;19.40;67.10;;;;;;5024858;28;20034;-69
2023/09/17 05:47:42;;;;;;;6.70;5.30;;;19.40;67.10;;;;;;5016375;28;20030;-69
2023/09/17 05:50:09;;;;;;;6.28;5.30;;;19.50;67.30;;;;;;5028378;28;20059;-69
2023/09/17 05:52:35;;;;;;;5.93;5.00;;;19.50;67.30;;;;;;5025004;28;20034;-68
2023/09/17 05:55:03;;;;;;;5.72;4.70;;;19.50;67.30;;;;;;5013853;28;20061;-69
2023/09/17 05:57:32;;;;;;;5.65;4.90;;;19.50;67.30;;;;;;5013967;28;20032;-68
2023/09/17 05:59:58;;;;;;;6.63;4.97;;;19.60;67.40;;;;;;5015536;28;20022;-68
2023/09/17 06:02:25;;;;;;;6.10;4.90;;;19.60;67.50;;;;;;5015337;28;20026;-69
2023/09/17 06:04:53;;;;;;;5.22;4.55;;;19.60;67.50;;;;;;5015173;28;20103;-68
2023/09/17 06:07:20;;;;;;;5.63;4.47;;;19.70;67.50;;;;;;5014991;28;20030;-68
2023/09/17 06:09:46;;;;;;;5.10;4.35;;;19.70;67.50;;;;;;5017379;28;20100;-69
2023/09/17 06:12:12;;;;;;;5.28;4.40;;;19.80;67.60;;;;;;5013906;28;20026;-69
2023/09/17 06:14:39;;;;;;;5.20;4.50;;;19.80;67.60;;;;;;5014982;28;20042;-69
2023/09/17 06:17:05;;;;;;;5.35;4.80;;;19.90;67.60;;;;;;5015000;28;20030;-69
2023/09/17 06:19:32;;;;;;;5.18;4.38;;;19.90;67.60;;;;;;5014919;28;20026;-70
2023/09/17 06:21:58;;;;;;;5.45;4.72;;;20.00;67.70;;;;;;5013544;28;20033;-70
2023/09/17 06:24:24;;;;;;;5.28;4.35;;;20.00;67.60;;;;;;5013639;28;20026;-70
2023/09/17 06:26:50;;;;;;;6.63;4.80;;;20.00;67.60;;;;;;5018282;28;20025;-70
2023/09/17 06:29:16;;;;;;;5.40;4.65;;;20.00;67.50;;;;;;5022391;28;20053;-69
2023/09/17 06:31:42;;;;;;;5.80;4.70;;;20.10;67.50;;;;;;5025686;28;20029;-71
2023/09/17 06:34:09;;;;;;;5.72;4.70;;;20.20;67.50;;;;;;5032872;28;20037;-70
2023/09/17 06:36:35;;;;;;;5.00;4.50;;;20.20;67.50;;;;;;5034500;28;20029;-70
2023/09/17 06:39:02;;;;;;;4.65;3.90;;;20.20;67.40;;;;;;5034844;28;20083;-69
2023/09/17 06:41:28;;;;;;;6.78;4.68;;;20.30;67.40;;;;;;5030914;28;20033;-71
2023/09/17 06:43:53;;;;;;;6.68;4.47;;;20.30;67.40;;;;;;5014472;28;20045;-71
2023/09/17 06:46:21;;;;;;;5.70;4.50;;;20.40;68.00;;;;;;5015253;28;20048;-70
2023/09/17 06:48:47;;;;;;;5.95;4.65;;;20.40;67.40;;;;;;5014252;28;20026;-70
2023/09/17 06:51:12;;;;;;;5.85;4.38;;;20.50;67.30;;;;;;5014144;28;20079;-70
2023/09/17 06:53:39;;;;;;;5.30;4.13;;;20.50;67.20;;;;;;5015032;28;20124;-70
2023/09/17 06:56:05;;;;;;;5.00;4.10;;;20.60;67.10;;;;;;5014325;28;20045;-69
2023/09/17 06:58:31;;;;;;;6.10;4.30;;;20.60;67.00;;;;;;5019612;28;20036;-70
2023/09/17 07:00:56;;;;;;;5.03;3.83;;;20.60;66.80;;;;;;5033902;28;20025;-69
2023/09/17 07:03:22;;;;;;;6.82;4.25;;;20.70;66.70;;;;;;5033929;28;20037;-68
2023/09/17 07:05:48;;;;;;;6.47;4.45;;;20.70;66.60;;;;;;5031831;28;20029;-69
2023/09/17 07:08:14;;;;;;;5.78;4.40;;;20.80;66.40;;;;;;5014177;28;20088;-69
2023/09/17 07:10:39;;;;;;;7.35;4.13;;;20.80;66.30;;;;;;5014269;28;20492;-71
2023/09/17 07:13:05;;;;;;;5.85;4.40;;;20.90;66.20;;;;;;5014275;28;20034;-69
2023/09/17 07:15:31;;;;;;;5.75;4.82;;;20.90;66.10;;;;;;5013968;28;20029;-70
2023/09/17 07:17:56;;;;;;;10.02;4.82;;;20.90;66.00;;;;;;5012654;28;20072;-70
2023/09/17 07:20:22;;;;;;;72.28;64.72;;;21.00;66.10;;;;;;5013717;28;20068;-69
2023/09/17 07:22:48;;;;;;;20.63;14.30;;;21.10;66.30;;;;;;5013927;28;20113;-70
2023/09/17 07:25:14;;;;;;;10.63;7.18;;;21.20;66.10;;;;;;5012580;28;20057;-72
2023/09/17 07:27:40;;;;;;;11.13;7.10;;;21.20;66.00;;;;;;5023672;28;20034;-70
2023/09/17 07:30:06;;;;;;;10.52;7.10;;;21.30;65.90;;;;;;5013839;28;20049;-70
2023/09/17 07:32:32;;;;;;;10.75;6.75;;;21.40;65.70;;;;;;5013910;28;20375;-71
2023/09/17 07:35:01;;;;;;;8.15;5.80;;;21.40;65.30;;;;;;5015200;28;20029;-71
2023/09/17 07:37:27;;;;;;;8.38;5.80;;;21.50;65.20;;;;;;5018351;28;20022;-69
2023/09/17 07:40:04;;;;;;;8.65;5.18;;;21.50;64.90;;;;;;5018097;28;20037;-71
2023/09/17 07:42:30;;;;;;;6.18;4.60;;;21.60;64.90;;;;;;5017038;28;20030;-75
2023/09/17 07:44:56;;;;;;;6.72;4.40;;;21.60;64.60;;;;;;5018023;28;20406;-70
2023/09/17 07:47:22;;;;;;;5.32;3.95;;;21.60;64.50;;;;;;5027035;28;20018;-71
2023/09/17 07:49:47;;;;;;;6.38;4.10;;;21.70;64.50;;;;;;5041040;28;20029;-78
2023/09/17 07:52:13;;;;;;;6.68;3.80;;;21.80;65.20;;;;;;5057349;28;20032;-76
2023/09/17 07:54:40;;;;;;;4.57;3.60;;;21.80;64.30;;;;;;5035274;28;20128;-74
2023/09/17 07:57:14;;;;;;;5.10;3.40;;;21.80;64.40;;;;;;5020926;28;20080;-76
2023/09/17 07:59:40;;;;;;;5.18;3.60;;;21.90;64.10;;;;;;5028811;28;20040;-75
2023/09/17 08:02:07;;;;;;;11.65;9.85;;;22.00;63.90;;;;;;5030317;28;20120;-66
2023/09/17 08:04:32;;;;;;;5.50;3.72;;;22.00;64.00;;;;;;5037423;28;20108;-68
2023/09/17 08:06:59;;;;;;;4.80;3.70;;;22.10;64.10;;;;;;5037043;28;20493;-70
2023/09/17 08:09:25;;;;;;;6.25;3.67;;;22.20;64.10;;;;;;5037247;28;20116;-67
2023/09/17 08:11:51;;;;;;;5.78;4.10;;;22.30;63.90;;;;;;5037147;28;20061;-71
2023/09/17 08:14:16;;;;;;;4.38;3.80;;;22.30;64.00;;;;;;5032862;28;20041;-69
2023/09/17 08:16:42;;;;;;;4.07;3.53;;;22.40;64.00;;;;;;5016867;28;20041;-72
2023/09/17 08:19:08;;;;;;;5.13;3.90;;;22.50;64.00;;;;;;5017413;28;20014;-71
2023/09/17 08:21:34;;;;;;;7.10;4.63;;;22.60;64.00;;;;;;5022323;28;20029;-72
2023/09/17 08:24:00;;;;;;;5.78;4.35;;;22.60;63.90;;;;;;5036717;28;20038;-73
2023/09/17 08:26:29;;;;;;;6.25;5.03;;;22.70;63.80;;;;;;5016230;28;20469;-74
2023/09/17 08:29:00;;;;;;;6.18;4.35;;;22.80;63.70;;;;;;5023162;28;20091;-73
2023/09/17 08:31:26;;;;;;;7.68;4.47;;;22.90;63.50;;;;;;5022834;28;20022;-82
2023/09/17 08:33:52;;;;;;;7.63;4.85;;;22.90;63.50;;;;;;5031387;28;20038;-78
2023/09/17 08:36:21;;;;;;;4.97;4.25;;;23.00;63.50;;;;;;5017347;28;20029;-73
2023/09/17 08:38:50;;;;;;;5.40;4.05;;;23.10;63.40;;;;;;5027584;28;20025;-73
2023/09/17 08:41:24;;;;;;;6.47;4.18;;;23.20;63.20;;;;;;5028121;28;20499;-71
2023/09/17 08:43:57;;;;;;;6.20;3.83;;;23.30;63.00;;;;;;5035121;28;20056;-72
2023/09/17 08:46:22;;;;;;;4.85;4.20;;;23.30;62.80;;;;;;5022564;28;20041;-71
2023/09/17 08:48:48;;;;;;;4.18;3.25;;;23.30;62.40;;;;;;5016166;28;20022;-74
2023/09/17 08:51:18;;;;;;;5.10;4.10;;;23.40;61.80;;;;;;5017439;28;20025;-71
2023/09/17 08:54:10;;;;;;;3.92;3.53;;;23.40;61.70;;;;;;5015017;28;20036;-73
2023/09/17 08:56:40;;;;;;;4.70;3.38;;;23.50;61.40;;;;;;5020370;28;20037;-74
2023/09/17 08:59:22;;;;;;;4.45;3.60;;;23.50;60.90;;;;;;5036417;28;20414;-73
2023/09/17 09:01:49;;;;;;;4.32;3.35;;;23.50;60.60;;;;;;5036096;28;20120;-72
2023/09/17 09:04:15;;;;;;;4.82;3.33;;;23.50;59.90;;;;;;5035905;28;20136;-72
2023/09/17 09:06:43;;;;;;;3.50;3.10;;;23.50;59.70;;;;;;5035602;28;20022;-72
2023/09/17 09:09:09;;;;;;;4.13;3.35;;;23.50;59.20;;;;;;5034411;28;20115;-69
2023/09/17 09:11:36;;;;;;;3.88;3.50;;;23.50;58.90;;;;;;5033208;28;20038;-69
2023/09/17 09:14:06;;;;;;;3.80;3.17;;;23.50;58.70;;;;;;5017078;28;20471;-69
2023/09/17 09:16:38;;;;;;;5.85;3.30;;;23.50;58.40;;;;;;5024900;28;20036;-70
2023/09/17 09:19:05;;;;;;;4.35;3.17;;;23.50;58.00;;;;;;5035871;28;20031;-70
2023/09/17 09:21:31;;;;;;;256.30;230.35;;;23.50;58.00;;;;;;5034437;28;20033;-69
2023/09/17 09:23:59;;;;;;;3.67;3.22;;;23.50;58.30;;;;;;5031023;28;20033;-78
2023/09/17 09:26:38;;;;;;;3.33;3.03;;;23.50;57.90;;;;;;5030192;28;20475;-76
2023/09/17 09:29:05;;;;;;;4.13;3.30;;;23.60;57.80;;;;;;5015504;28;20026;-80
2023/09/17 09:31:32;;;;;;;3.97;3.08;;;23.60;57.70;;;;;;5033400;28;20044;-78
2023/09/17 09:33:59;;;;;;;4.00;3.40;;;23.60;57.50;;;;;;5035750;28;20038;-75
2023/09/17 09:36:31;;;;;;;4.10;3.40;;;23.60;57.30;;;;;;5033647;28;20029;-75
2023/09/17 09:38:57;;;;;;;4.00;3.42;;;23.70;57.20;;;;;;5034406;28;20422;-79
2023/09/17 09:41:25;;;;;;;3.30;2.70;;;23.60;57.00;;;;;;5017069;28;20125;-75
2023/09/17 09:43:52;;;;;;;3.45;2.70;;;23.70;57.10;;;;;;5016352;28;20037;-74
2023/09/17 09:46:18;;;;;;;4.25;3.10;;;23.70;56.90;;;;;;5033599;28;20083;-75
2023/09/17 09:48:45;;;;;;;4.32;3.08;;;23.70;56.80;;;;;;5017766;28;20030;-79
2023/09/17 09:51:11;;;;;;;3.20;2.90;;;23.80;56.70;;;;;;5033567;28;20029;-83
2023/09/17 09:53:36;;;;;;;3.47;2.83;;;23.80;56.60;;;;;;5035068;28;20044;-71
2023/09/17 09:56:04;;;;;;;3.67;3.03;;;23.80;56.40;;;;;;5023039;28;20053;-74
2023/09/17 09:58:30;;;;;;;5.05;3.70;;;23.90;56.40;;;;;;5014700;28;20033;-75
2023/09/17 10:00:57;;;;;;;3.92;3.05;;;23.90;56.10;;;;;;5014477;28;20026;-74
2023/09/17 10:03:24;;;;;;;4.43;2.90;;;23.90;55.80;;;;;;5014444;28;20073;-77
2023/09/17 10:05:50;;;;;;;4.15;2.97;;;23.90;55.50;;;;;;5015035;28;20034;-73
2023/09/17 10:08:19;;;;;;;3.45;2.85;;;23.90;55.40;;;;;;5014794;28;20069;-74
2023/09/17 10:10:48;;;;;;;3.22;2.92;;;23.90;55.40;;;;;;5013713;28;20486;-74
2023/09/17 10:13:16;;;;;;;3.50;2.95;;;23.90;55.20;;;;;;5015161;28;20033;-76
2023/09/17 10:15:42;;;;;;;3.50;3.10;;;23.90;54.80;;;;;;5021115;28;20093;-73
2023/09/17 10:18:12;;;;;;;3.05;2.75;;;23.90;54.50;;;;;;5014796;28;20118;-77
2023/09/17 10:20:42;;;;;;;3.08;2.78;;;23.90;54.40;;;;;;5029859;28;20030;-81
2023/09/17 10:23:09;;;;;;;3.92;3.00;;;23.90;54.20;;;;;;5013504;28;20036;-86
2023/09/17 10:25:36;;;;;;;3.90;2.80;;;23.90;54.20;;;;;;5014768;28;20018;-75
2023/09/17 10:28:02;;;;;;;4.60;2.92;;;23.90;54.20;;;;;;5014648;28;20030;-74
2023/09/17 10:30:30;;;;;;;3.22;2.92;;;23.90;54.10;;;;;;5026687;28;20464;-77
2023/09/17 10:32:58;;;;;;;4.05;2.70;;;24.00;54.10;;;;;;5024706;28;20038;-79
2023/09/17 10:35:24;;;;;;;3.40;3.00;;;23.90;53.90;;;;;;5015352;28;20048;-79
2023/09/17 10:37:51;;;;;;;3.17;2.60;;;24.00;54.10;;;;;;5033143;28;20032;-81
2023/09/17 10:40:17;;;;;;;5.32;2.80;;;24.00;53.70;;;;;;5034133;28;20462;-77
2023/09/17 10:42:44;;;;;;;6.20;2.95;;;24.10;53.70;;;;;;5015796;28;20095;-82
2023/09/17 10:45:10;;;;;;;4.13;2.88;;;24.00;53.70;;;;;;5013474;28;20034;-77
2023/09/17 10:47:41;;;;;;;3.45;2.83;;;24.10;53.60;;;;;;5025473;28;20025;-75
2023/09/17 10:50:08;;;;;;;4.15;2.92;;;24.20;53.50;;;;;;5014282;28;20108;-75
2023/09/17 10:52:35;;;;;;;3.55;2.90;;;24.20;53.50;;;;;;5012858;28;20032;-78
2023/09/17 10:55:02;;;;;;;31.52;28.17;;;24.20;53.30;;;;;;5012617;28;20061;-76
2023/09/17 10:57:39;;;;;;;5.15;3.40;;;24.20;53.00;;;;;;5013714;28;20026;-78
2023/09/17 11:00:11;;;;;;;4.95;3.10;;;24.20;52.70;;;;;;5015031;28;20372;-81
2023/09/17 11:02:38;;;;;;;3.53;3.00;;;24.20;53.00;;;;;;5017244;28;20179;-84
2023/09/17 11:05:07;;;;;;;3.15;2.80;;;24.20;52.90;;;;;;5028522;28;20025;-80
2023/09/17 11:07:34;;;;;;;3.35;2.85;;;24.30;52.80;;;;;;5033594;28;20030;-83
2023/09/17 11:10:02;;;;;;;3.60;2.97;;;24.30;52.90;;;;;;5032184;28;20026;-83
2023/09/17 11:12:28;;;;;;;2.78;2.58;;;24.30;52.80;;;;;;5015420;28;20088;-86
2023/09/17 11:14:53;;;;;;;3.13;2.55;;;24.40;52.70;;;;;;5033633;28;20037;-80
2023/09/17 11:17:29;;;;;;;3.08;2.60;;;24.40;52.50;;;;;;5033881;28;20026;-83
2023/09/17 11:19:55;;;;;;;4.50;2.95;;;24.50;52.60;;;;;;5033612;28;20033;-83
2023/09/17 11:22:20;;;;;;;2.63;2.40;;;24.50;52.80;;;;;;5018566;28;20088;-83
2023/09/17 11:24:47;;;;;;;3.05;2.75;;;24.50;52.90;;;;;;5014480;28;20033;-90
2023/09/17 11:27:18;;;;;;;3.30;2.90;;;24.50;52.70;;;;;;5014512;28;20056;-79
2023/09/17 11:29:45;;;;;;;2.95;2.50;;;24.60;52.40;;;;;;5029371;28;20023;-86
2023/09/17 11:32:13;;;;;;;2.97;2.67;;;24.60;52.90;;;;;;5035214;28;20074;-79
2023/09/17 11:34:42;;;;;;;3.75;2.53;;;24.60;53.10;;;;;;5031470;28;20037;-86
2023/09/17 11:37:08;;;;;;;2.85;2.55;;;24.70;52.40;;;;;;5015221;28;20045;-80
2023/09/17 11:39:37;;;;;;;3.28;2.72;;;24.70;52.40;;;;;;5013711;28;20503;-78
2023/09/17 11:42:07;;;;;;;3.22;2.22;;;24.80;52.40;;;;;;5013622;28;20022;-82
2023/09/17 11:44:35;;;;;;;2.60;2.40;;;24.90;52.50;;;;;;5013581;28;20034;-83
2023/09/17 11:47:03;;;;;;;2.75;2.50;;;24.90;52.40;;;;;;5012231;28;20026;-84
2023/09/17 11:49:28;;;;;;;4.72;2.63;;;24.90;52.20;;;;;;5012434;28;20465;-80
2023/09/17 11:51:57;;;;;;;3.90;2.60;;;24.90;52.30;;;;;;5018307;28;20026;-85
2023/09/17 11:54:30;;;;;;;3.22;2.50;;;24.90;52.30;;;;;;5024369;28;20064;-82
2023/09/17 11:56:56;;;;;;;3.88;2.60;;;24.90;52.30;;;;;;5019773;28;20037;-78
2023/09/17 11:59:23;;;;;;;3.85;2.60;;;25.00;52.10;;;;;;5033108;28;20025;-80
2023/09/17 12:01:52;;;;;;;4.25;2.53;;;25.00;52.00;;;;;;5030189;28;20029;-75
2023/09/17 12:04:20;;;;;;;2.70;2.50;;;25.00;52.00;;;;;;5016674;28;20066;-77
2023/09/17 12:06:47;;;;;;;2.90;2.60;;;25.00;52.00;;;;;;5018373;28;20052;-77
2023/09/17 12:12:36;;;;;;;3.28;2.70;;;25.00;51.70;;;;;;5013280;28;20026;-76
2023/09/17 12:15:09;;;;;;;3.25;2.90;;;25.00;51.90;;;;;;5013581;28;20499;-78
2023/09/17 12:17:36;;;;;;;3.95;2.40;;;25.10;51.90;;;;;;5029541;28;20029;-74
2023/09/17 12:21:10;;;;;;;2.95;2.60;;;25.10;51.70;;;;;;5032917;28;20030;-74
2023/09/17 12:29:33;;;;;;;3.15;2.38;;;25.30;51.60;;;;;;5036499;28;20030;-74
2023/09/17 12:31:59;;;;;;;2.40;2.20;;;25.30;51.60;;;;;;5028460;28;20034;-73
2023/09/17 12:34:25;;;;;;;2.70;2.50;;;25.40;51.40;;;;;;5016901;28;20400;-82
2023/09/17 12:36:51;;;;;;;2.63;2.28;;;25.40;51.50;;;;;;5033299;28;20033;-73
2023/09/17 12:39:17;;;;;;;3.00;2.28;;;25.50;51.30;;;;;;5018723;28;20041;-73
2023/09/17 12:41:43;;;;;;;4.82;2.60;;;25.50;51.20;;;;;;5016735;28;20026;-73
2023/09/17 12:44:10;;;;;;;2.70;2.38;;;25.60;51.20;;;;;;5029243;28;20499;-74
2023/09/17 12:46:37;;;;;;;3.45;2.70;;;25.60;51.10;;;;;;5036512;28;20414;-73
2023/09/17 12:49:03;;;;;;;2.35;2.15;;;25.70;51.10;;;;;;5033661;28;20377;-73
2023/09/17 12:51:29;;;;;;;4.20;2.65;;;25.80;51.00;;;;;;5021874;28;20026;-71
2023/09/17 12:53:56;;;;;;;3.53;2.42;;;25.80;50.90;;;;;;5036270;28;20029;-74
2023/09/17 12:56:22;;;;;;;4.13;2.50;;;25.90;50.80;;;;;;5039261;28;20206;-74